createdAt,value
2022-08-05T00:00:55.996Z,3.20
2022-08-05T00:02:21.321Z,3.20
2022-08-05T00:03:24.623Z,3.30
2022-08-05T00:04:32.235Z,3.50
2022-08-05T00:06:05.553Z,3.30
2022-08-05T00:07:02.700Z,3.20
2022-08-05T00:08:34.282Z,3.60
2022-08-05T00:09:38.540Z,3.00
2022-08-05T00:10:47.171Z,3.30
2022-08-05T00:11:55.663Z,3.40
2022-08-05T00:13:09.480Z,3.40
2022-08-05T00:14:27.809Z,3.40
2022-08-05T00:15:58.226Z,3.30
2022-08-05T00:17:05.923Z,3.20
2022-08-05T00:18:22.898Z,3.30
2022-08-05T00:19:33.831Z,3.30
2022-08-05T00:20:49.037Z,3.30
2022-08-05T00:21:52.307Z,3.10
2022-08-05T00:22:58.500Z,3.50
2022-08-05T00:24:10.381Z,3.30
2022-08-05T00:25:14.257Z,3.30
2022-08-05T00:26:20.187Z,3.30
2022-08-05T00:27:35.955Z,3.30
2022-08-05T00:28:39.893Z,3.40
2022-08-05T00:29:43.010Z,3.50
2022-08-05T00:30:46.162Z,3.60
2022-08-05T00:32:12.519Z,3.40
2022-08-05T00:34:54.016Z,3.40
2022-08-05T00:35:03.640Z,3.30
2022-08-05T00:36:16.273Z,3.50
2022-08-05T00:37:51.267Z,3.30
2022-08-05T00:38:52.683Z,3.60
2022-08-05T00:39:58.340Z,3.40
2022-08-05T00:41:02.388Z,3.60
2022-08-05T00:42:08.759Z,3.10
2022-08-05T00:43:15.341Z,3.40
2022-08-05T00:44:18.644Z,3.40
2022-08-05T00:45:39.152Z,3.50
2022-08-05T00:46:47.006Z,3.30
2022-08-05T00:48:05.610Z,3.40
2022-08-05T00:49:09.645Z,3.40
2022-08-05T00:50:21.070Z,3.40
2022-08-05T00:51:50.873Z,3.60
2022-08-05T00:52:47.540Z,3.60
2022-08-05T00:54:02.472Z,3.80
2022-08-05T00:55:06.771Z,3.60
2022-08-05T00:56:09.990Z,3.90
2022-08-05T00:57:15.697Z,3.80
2022-08-05T00:58:27.235Z,3.50
2022-08-05T00:59:34.737Z,3.60
2022-08-05T01:00:50.349Z,3.20
2022-08-05T01:01:53.630Z,3.50
2022-08-05T01:02:59.935Z,3.90
2022-08-05T01:04:04.042Z,4.00
2022-08-05T01:05:17.183Z,3.60
2022-08-05T01:06:20.385Z,3.70
2022-08-05T01:07:35.477Z,3.70
2022-08-05T01:08:42.758Z,3.80
2022-08-05T01:09:55.656Z,3.90
2022-08-05T01:11:11.485Z,3.90
2022-08-05T01:12:20.627Z,3.90
2022-08-05T01:13:58.585Z,3.70
2022-08-05T01:15:05.750Z,3.50
2022-08-05T01:16:44.608Z,3.70
2022-08-05T01:18:05.661Z,3.40
2022-08-05T01:19:36.671Z,3.50
2022-08-05T01:20:46.878Z,3.50
2022-08-05T01:22:15.333Z,3.60
2022-08-05T01:23:34.859Z,3.60
2022-08-05T01:24:47.303Z,4.70
2022-08-05T01:26:14.215Z,3.80
2022-08-05T01:27:50.554Z,3.70
2022-08-05T01:29:04.976Z,3.60
2022-08-05T01:30:12.402Z,3.50
2022-08-05T01:31:45.009Z,3.60
2022-08-05T01:32:51.336Z,3.70
2022-08-05T01:33:59.712Z,3.50
2022-08-05T01:35:50.988Z,3.50
2022-08-05T01:36:47.980Z,4.10
2022-08-05T01:37:55.258Z,3.50
2022-08-05T01:39:01.337Z,3.80
2022-08-05T01:40:06.290Z,3.60
2022-08-05T01:41:13.989Z,3.80
2022-08-05T01:42:20.848Z,3.90
2022-08-05T01:43:25.843Z,3.60
2022-08-05T01:44:34.218Z,3.80
2022-08-05T01:45:43.150Z,3.80
2022-08-05T01:46:47.553Z,3.50
2022-08-05T01:47:54.482Z,3.50
2022-08-05T01:49:01.133Z,3.60
2022-08-05T01:50:30.476Z,3.60
2022-08-05T01:51:36.128Z,3.50
2022-08-05T01:52:43.289Z,3.40
2022-08-05T01:53:57.048Z,3.40
2022-08-05T01:55:07.215Z,3.20
2022-08-05T01:58:11.440Z,3.50
2022-08-05T01:58:12.155Z,3.50
2022-08-05T01:59:16.117Z,3.50
2022-08-05T02:00:20.004Z,3.70
2022-08-05T02:01:39.999Z,3.80
2022-08-05T02:02:53.677Z,3.90
2022-08-05T02:04:00.268Z,4.00
2022-08-05T02:05:11.639Z,3.60
2022-08-05T02:06:33.981Z,4.00
2022-08-05T02:07:40.093Z,3.70
2022-08-05T02:08:55.024Z,3.90
2022-08-05T02:10:03.612Z,3.80
2022-08-05T02:11:11.826Z,3.80
2022-08-05T02:12:40.768Z,4.00
2022-08-05T02:13:53.280Z,4.00
2022-08-05T02:15:33.289Z,4.00
2022-08-05T02:16:52.884Z,3.80
2022-08-05T02:18:32.145Z,4.00
2022-08-05T02:19:28.310Z,4.00
2022-08-05T02:20:40.828Z,4.00
2022-08-05T02:21:53.386Z,3.90
2022-08-05T02:23:01.647Z,4.00
2022-08-05T02:24:09.388Z,4.00
2022-08-05T02:25:19.743Z,4.10
2022-08-05T02:26:54.579Z,3.90
2022-08-05T02:28:01.201Z,4.00
2022-08-05T02:29:06.442Z,4.30
2022-08-05T02:30:28.893Z,4.40
2022-08-05T02:31:37.203Z,4.30
2022-08-05T02:32:41.962Z,4.10
2022-08-05T02:33:57.314Z,4.40
2022-08-05T02:35:13.294Z,3.90
2022-08-05T02:36:20.939Z,4.40
2022-08-05T02:37:32.842Z,4.20
2022-08-05T02:38:38.801Z,3.90
2022-08-05T02:39:42.749Z,3.90
2022-08-05T02:40:56.329Z,4.20
2022-08-05T02:42:02.151Z,3.60
2022-08-05T02:43:07.426Z,4.00
2022-08-05T02:44:13.571Z,4.00
2022-08-05T02:45:18.912Z,3.70
2022-08-05T02:46:32.107Z,4.10
2022-08-05T02:48:06.428Z,4.00
2022-08-05T02:49:00.569Z,4.10
2022-08-05T02:50:05.474Z,4.00
2022-08-05T02:51:12.362Z,4.00
2022-08-05T02:52:29.741Z,4.20
2022-08-05T02:53:39.549Z,4.10
2022-08-05T02:54:52.138Z,4.10
2022-08-05T02:56:02.342Z,4.10
2022-08-05T02:58:19.714Z,4.40
2022-08-05T02:58:37.716Z,4.20
2022-08-05T02:59:51.978Z,3.90
2022-08-05T03:01:11.693Z,4.00
2022-08-05T03:02:21.272Z,3.80
2022-08-05T03:03:26.062Z,3.80
2022-08-05T03:04:30.177Z,4.10
2022-08-05T03:06:54.061Z,3.90
2022-08-05T03:06:59.481Z,4.00
2022-08-05T03:08:08.522Z,3.70
2022-08-05T03:09:15.822Z,4.30
2022-08-05T03:10:24.509Z,4.10
2022-08-05T03:11:57.429Z,4.20
2022-08-05T03:12:54.411Z,4.40
2022-08-05T03:14:03.153Z,4.30
2022-08-05T03:15:12.308Z,4.10
2022-08-05T03:16:16.321Z,4.20
2022-08-05T03:17:23.233Z,3.60
2022-08-05T03:18:29.961Z,3.90
2022-08-05T03:19:36.171Z,3.60
2022-08-05T03:20:48.757Z,3.70
2022-08-05T03:21:52.473Z,3.60
2022-08-05T03:22:57.635Z,3.80
2022-08-05T03:24:29.790Z,4.10
2022-08-05T03:26:03.574Z,4.10
2022-08-05T03:27:10.328Z,3.70
2022-08-05T03:28:18.857Z,3.90
2022-08-05T03:29:23.303Z,3.90
2022-08-05T03:30:33.367Z,3.80
2022-08-05T03:31:56.121Z,3.80
2022-08-05T03:33:02.111Z,4.10
2022-08-05T03:34:06.205Z,3.90
2022-08-05T03:35:11.639Z,3.60
2022-08-05T03:36:30.374Z,4.30
2022-08-05T03:37:45.847Z,4.00
2022-08-05T03:38:52.482Z,4.00
2022-08-05T03:40:06.446Z,4.20
2022-08-05T03:41:23.604Z,4.10
2022-08-05T03:42:29.090Z,4.30
2022-08-05T03:44:09.334Z,4.40
2022-08-05T03:45:22.491Z,4.40
2022-08-05T03:46:34.566Z,4.00
2022-08-05T03:47:41.328Z,3.80
2022-08-05T03:48:46.682Z,4.10
2022-08-05T03:49:52.011Z,3.90
2022-08-05T03:52:50.258Z,4.10
2022-08-05T03:54:59.099Z,4.40
2022-08-05T03:56:04.637Z,3.70
2022-08-05T03:56:06.228Z,4.20
2022-08-05T03:57:34.482Z,4.10
2022-08-05T03:58:38.215Z,4.00
2022-08-05T03:59:55.593Z,4.10
2022-08-05T04:01:02.317Z,4.40
2022-08-05T04:02:12.186Z,4.30
2022-08-05T04:03:28.554Z,4.30
2022-08-05T04:04:33.234Z,4.20
2022-08-05T04:05:38.589Z,3.90
2022-08-05T04:06:47.853Z,3.90
2022-08-05T04:07:58.634Z,3.90
2022-08-05T04:09:06.456Z,4.40
2022-08-05T04:10:10.587Z,4.10
2022-08-05T04:11:20.763Z,4.30
2022-08-05T04:12:26.456Z,4.10
2022-08-05T04:13:50.354Z,4.10
2022-08-05T04:14:54.699Z,4.40
2022-08-05T04:16:04.825Z,4.70
2022-08-05T04:17:09.322Z,4.20
2022-08-05T04:18:20.539Z,4.50
2022-08-05T04:19:26.469Z,4.60
2022-08-05T04:20:32.307Z,4.00
2022-08-05T04:22:08.278Z,4.60
2022-08-05T04:23:00.256Z,4.30
2022-08-05T04:24:08.823Z,4.30
2022-08-05T04:25:38.378Z,4.50
2022-08-05T04:26:45.056Z,4.40
2022-08-05T04:27:57.193Z,4.80
2022-08-05T04:29:07.062Z,4.90
2022-08-05T04:30:11.457Z,4.40
2022-08-05T04:31:17.066Z,4.10
2022-08-05T04:32:31.165Z,4.50
2022-08-05T04:34:19.302Z,4.60
2022-08-05T04:34:59.832Z,4.60
2022-08-05T04:36:11.373Z,4.30
2022-08-05T04:37:20.060Z,4.40
2022-08-05T04:38:39.498Z,4.70
2022-08-05T04:39:43.240Z,4.70
2022-08-05T04:40:47.884Z,4.60
2022-08-05T04:41:54.443Z,4.70
2022-08-05T04:42:58.674Z,4.60
2022-08-05T04:44:02.123Z,4.60
2022-08-05T04:46:28.305Z,4.60
2022-08-05T04:47:38.605Z,4.60
2022-08-05T04:48:46.206Z,4.90
2022-08-05T04:50:02.895Z,4.90
2022-08-05T04:51:14.905Z,4.60
2022-08-05T04:52:18.721Z,4.70
2022-08-05T04:53:22.394Z,5.00
2022-08-05T04:54:27.442Z,4.60
2022-08-05T04:56:11.894Z,4.80
2022-08-05T04:56:58.783Z,4.60
2022-08-05T04:58:05.938Z,5.00
2022-08-05T04:59:22.906Z,5.10
2022-08-05T05:00:50.647Z,5.00
2022-08-05T05:02:35.083Z,5.10
2022-08-05T05:03:20.323Z,4.90
2022-08-05T05:04:23.601Z,5.20
2022-08-05T05:05:29.355Z,5.00
2022-08-05T05:06:40.279Z,4.90
2022-08-05T05:07:56.146Z,4.90
2022-08-05T05:09:05.502Z,5.50
2022-08-05T05:10:09.069Z,5.60
2022-08-05T05:11:15.253Z,5.50
2022-08-05T05:12:19.206Z,5.60
2022-08-05T05:13:22.728Z,5.30
2022-08-05T05:14:31.519Z,5.50
2022-08-05T05:15:57.268Z,5.50
2022-08-05T05:16:58.657Z,5.30
2022-08-05T05:18:02.071Z,5.10
2022-08-05T05:19:18.786Z,5.30
2022-08-05T05:20:22.932Z,5.50
2022-08-05T05:21:33.086Z,5.70
2022-08-05T05:22:40.939Z,5.60
2022-08-05T05:24:03.820Z,5.80
2022-08-05T05:25:17.060Z,5.60
2022-08-05T05:26:28.619Z,5.60
2022-08-05T05:27:44.309Z,5.60
2022-08-05T05:28:48.502Z,5.80
2022-08-05T05:30:04.938Z,5.70
2022-08-05T05:31:09.025Z,5.60
2022-08-05T05:32:15.531Z,6.10
2022-08-05T05:33:23.111Z,6.00
2022-08-05T05:34:27.334Z,5.20
2022-08-05T05:35:38.014Z,5.10
2022-08-05T05:36:43.010Z,5.70
2022-08-05T05:37:59.838Z,5.90
2022-08-05T05:39:04.931Z,6.10
2022-08-05T05:40:18.686Z,6.10
2022-08-05T05:41:25.232Z,5.80
2022-08-05T05:42:47.159Z,5.70
2022-08-05T05:43:57.215Z,6.00
2022-08-05T05:45:03.615Z,5.80
2022-08-05T05:46:13.746Z,5.80
2022-08-05T05:47:21.638Z,6.00
2022-08-05T05:48:27.898Z,5.80
2022-08-05T05:49:31.061Z,5.60
2022-08-05T05:50:43.997Z,5.60
2022-08-05T05:51:50.650Z,5.20
2022-08-05T05:52:54.575Z,5.90
2022-08-05T05:54:00.060Z,6.20
2022-08-05T05:55:13.530Z,5.50
2022-08-05T05:56:31.365Z,5.60
2022-08-05T05:57:52.182Z,5.70
2022-08-05T05:58:58.611Z,5.50
2022-08-05T06:00:15.872Z,5.40
2022-08-05T06:01:20.098Z,5.80
2022-08-05T06:02:37.388Z,5.40
2022-08-05T06:04:01.906Z,6.00
2022-08-05T06:05:16.504Z,5.90
2022-08-05T06:06:20.243Z,5.80
2022-08-05T06:07:42.139Z,6.30
2022-08-05T06:08:49.233Z,5.40
2022-08-05T06:10:00.854Z,5.70
2022-08-05T06:11:07.993Z,5.40
2022-08-05T06:12:12.127Z,5.50
2022-08-05T06:13:15.441Z,5.20
2022-08-05T06:14:18.618Z,5.30
2022-08-05T06:15:23.946Z,4.80
2022-08-05T06:16:32.592Z,5.10
2022-08-05T06:17:53.010Z,4.60
2022-08-05T06:19:00.248Z,5.30
2022-08-05T06:20:06.226Z,5.20
2022-08-05T06:21:24.842Z,5.50
2022-08-05T06:22:40.601Z,5.80
2022-08-05T06:23:45.512Z,5.70
2022-08-05T06:24:53.401Z,5.70
2022-08-05T06:26:12.181Z,5.70
2022-08-05T06:28:12.821Z,6.40
2022-08-05T06:28:43.272Z,6.00
2022-08-05T06:30:03.967Z,5.80
2022-08-05T06:31:18.084Z,5.60
2022-08-05T06:32:28.895Z,5.90
2022-08-05T06:34:05.795Z,5.60
2022-08-05T06:34:57.927Z,5.70
2022-08-05T06:36:03.789Z,5.10
2022-08-05T06:37:11.682Z,5.50
2022-08-05T06:38:15.622Z,4.90
2022-08-05T06:39:19.331Z,5.20
2022-08-05T06:40:32.469Z,5.40
2022-08-05T06:42:44.651Z,4.80
2022-08-05T06:43:59.013Z,4.70
2022-08-05T06:45:08.311Z,4.60
2022-08-05T06:46:12.136Z,5.00
2022-08-05T06:48:11.918Z,4.30
2022-08-05T06:48:55.634Z,4.50
2022-08-05T06:50:05.298Z,4.40
2022-08-05T06:51:09.548Z,4.40
2022-08-05T06:52:36.600Z,4.20
2022-08-05T06:53:39.261Z,4.20
2022-08-05T06:54:42.907Z,4.20
2022-08-05T06:55:46.070Z,4.10
2022-08-05T06:56:54.701Z,4.10
2022-08-05T06:58:20.032Z,3.80
2022-08-05T06:59:21.751Z,3.90
2022-08-05T07:00:25.622Z,3.90
2022-08-05T07:01:32.195Z,4.00
2022-08-05T07:02:42.995Z,4.20
2022-08-05T07:03:46.855Z,4.00
2022-08-05T07:04:54.405Z,4.00
2022-08-05T07:06:06.033Z,3.80
2022-08-05T07:07:24.161Z,3.60
2022-08-05T07:08:47.743Z,3.60
2022-08-05T07:09:58.150Z,3.60
2022-08-05T07:11:01.997Z,3.70
2022-08-05T07:12:08.154Z,3.80
2022-08-05T07:13:56.703Z,3.50
2022-08-05T07:15:14.521Z,3.70
2022-08-05T07:18:00.691Z,3.80
2022-08-05T07:18:19.512Z,3.60
2022-08-05T07:20:53.804Z,3.40
2022-08-05T07:21:59.350Z,3.20
2022-08-05T07:23:04.683Z,3.30
2022-08-05T07:24:11.222Z,3.30
2022-08-05T07:25:54.416Z,3.20
2022-08-05T07:26:38.143Z,3.50
2022-08-05T07:27:58.772Z,3.30
2022-08-05T07:29:05.555Z,3.30
2022-08-05T07:30:30.190Z,3.30
2022-08-05T07:31:53.991Z,3.30
2022-08-05T07:32:58.812Z,3.40
2022-08-05T07:34:03.176Z,3.40
2022-08-05T07:35:55.995Z,3.20
2022-08-05T07:36:41.881Z,3.40
2022-08-05T07:37:47.862Z,3.50
2022-08-05T07:38:54.926Z,3.40
2022-08-05T07:40:27.148Z,3.30
2022-08-05T07:42:07.970Z,3.40
2022-08-05T07:42:49.132Z,3.50
2022-08-05T07:43:55.095Z,3.20
2022-08-05T07:45:00.438Z,3.20
2022-08-05T07:46:03.868Z,3.40
2022-08-05T07:47:10.160Z,3.60
2022-08-05T07:48:16.604Z,3.00
2022-08-05T07:49:43.584Z,3.30
2022-08-05T07:50:59.712Z,3.30
2022-08-05T07:52:03.157Z,3.20
2022-08-05T07:53:06.868Z,3.20
2022-08-05T07:54:11.538Z,3.20
2022-08-05T07:55:44.226Z,3.00
2022-08-05T07:57:14.552Z,3.30
2022-08-05T07:58:03.136Z,3.10
2022-08-05T07:59:08.687Z,3.20
2022-08-05T08:00:14.792Z,3.10
2022-08-05T08:01:18.585Z,3.20
2022-08-05T08:02:30.967Z,3.50
2022-08-05T08:03:51.623Z,3.50
2022-08-05T08:04:56.008Z,3.20
2022-08-05T08:06:02.266Z,2.80
2022-08-05T08:07:07.074Z,3.20
2022-08-05T08:08:12.127Z,3.00
2022-08-05T08:09:15.691Z,3.20
2022-08-05T08:10:20.622Z,2.90
2022-08-05T08:11:27.630Z,3.20
2022-08-05T08:12:49.823Z,3.00
2022-08-05T08:14:00.615Z,2.90
2022-08-05T08:15:15.757Z,2.80
2022-08-05T08:16:35.296Z,2.80
2022-08-05T08:17:50.638Z,2.50
2022-08-05T08:18:56.435Z,2.50
2022-08-05T08:20:43.383Z,2.70
2022-08-05T08:21:25.612Z,2.50
2022-08-05T08:22:30.031Z,2.40
2022-08-05T08:24:01.768Z,2.40
2022-08-05T08:25:02.710Z,2.50
2022-08-05T08:26:07.157Z,2.50
2022-08-05T08:27:10.929Z,2.40
2022-08-05T08:28:36.793Z,2.40
2022-08-05T08:30:05.256Z,2.50
2022-08-05T08:31:04.377Z,2.60
2022-08-05T08:32:07.752Z,2.80
2022-08-05T08:33:14.446Z,2.50
2022-08-05T08:34:30.430Z,2.70
2022-08-05T08:35:40.935Z,2.60
2022-08-05T08:36:48.913Z,2.70
2022-08-05T08:37:56.421Z,2.40
2022-08-05T08:38:59.838Z,2.50
2022-08-05T08:40:05.558Z,2.50
2022-08-05T08:41:10.907Z,2.40
2022-08-05T08:42:33.677Z,2.50
2022-08-05T08:45:16.625Z,2.50
2022-08-05T08:45:19.143Z,2.40
2022-08-05T08:46:30.639Z,2.40
2022-08-05T08:48:05.917Z,2.60
2022-08-05T08:50:05.720Z,2.60
2022-08-05T08:50:32.978Z,2.60
2022-08-05T08:52:03.327Z,2.70
2022-08-05T08:53:15.403Z,2.30
2022-08-05T08:54:18.636Z,2.40
2022-08-05T08:56:01.846Z,2.30
2022-08-05T08:56:47.675Z,2.70
2022-08-05T08:57:57.933Z,2.50
2022-08-05T08:59:03.173Z,2.60
2022-08-05T09:00:15.826Z,2.60
2022-08-05T09:01:22.705Z,2.50
2022-08-05T09:02:27.144Z,2.50
2022-08-05T09:03:45.012Z,2.40
2022-08-05T09:05:15.911Z,2.60
2022-08-05T09:06:18.620Z,2.60
2022-08-05T09:07:28.894Z,2.50
2022-08-05T09:08:32.837Z,2.20
2022-08-05T09:09:38.155Z,2.50
2022-08-05T09:10:46.903Z,2.30
2022-08-05T09:11:51.276Z,2.40
2022-08-05T09:13:04.851Z,2.50
2022-08-05T09:14:54.131Z,2.20
2022-08-05T09:15:32.401Z,2.60
2022-08-05T09:16:48.634Z,2.40
2022-08-05T09:17:52.974Z,2.40
2022-08-05T09:18:59.225Z,2.50
2022-08-05T09:20:05.605Z,2.50
2022-08-05T09:21:11.718Z,2.30
2022-08-05T09:22:31.038Z,2.40
2022-08-05T09:23:37.521Z,2.20
2022-08-05T09:25:23.809Z,2.30
2022-08-05T09:26:32.429Z,2.10
2022-08-05T09:28:03.869Z,2.00
2022-08-05T09:29:05.024Z,2.30
2022-08-05T09:30:08.680Z,2.30
2022-08-05T09:32:39.259Z,2.20
2022-08-05T09:32:46.939Z,2.20
2022-08-05T09:33:55.067Z,2.10
2022-08-05T09:35:02.561Z,2.10
2022-08-05T09:36:16.285Z,2.20
2022-08-05T09:38:12.580Z,2.30
2022-08-05T09:39:04.011Z,2.20
2022-08-05T09:40:36.395Z,2.20
2022-08-05T09:42:00.388Z,2.10
2022-08-05T09:43:08.455Z,2.10
2022-08-05T09:44:11.817Z,2.00
2022-08-05T09:46:05.104Z,2.00
2022-08-05T09:46:50.163Z,2.20
2022-08-05T09:47:56.695Z,2.30
2022-08-05T09:49:06.771Z,2.20
2022-08-05T09:50:11.549Z,2.10
2022-08-05T09:51:15.813Z,2.40
2022-08-05T09:52:33.752Z,2.30
2022-08-05T09:53:53.669Z,2.40
2022-08-05T09:55:55.559Z,2.20
2022-08-05T09:56:37.800Z,2.30
2022-08-05T09:57:43.963Z,2.50
2022-08-05T09:59:17.941Z,2.30
2022-08-05T10:00:26.518Z,2.40
2022-08-05T10:01:33.696Z,2.40
2022-08-05T10:02:43.497Z,2.30
2022-08-05T10:04:28.654Z,2.20
2022-08-05T10:05:33.581Z,2.30
2022-08-05T10:06:37.333Z,2.40
2022-08-05T10:08:36.706Z,2.20
2022-08-05T10:09:27.361Z,2.50
2022-08-05T10:10:46.106Z,2.40
2022-08-05T10:11:51.443Z,2.60
2022-08-05T10:13:00.699Z,2.60
2022-08-05T10:14:30.223Z,2.20
2022-08-05T10:15:42.984Z,2.20
2022-08-05T10:16:52.381Z,2.50
2022-08-05T10:18:09.115Z,2.40
2022-08-05T10:19:13.964Z,2.60
2022-08-05T10:20:20.553Z,2.60
2022-08-05T10:21:25.077Z,2.50
2022-08-05T10:22:29.672Z,2.50
2022-08-05T10:23:59.253Z,2.50
2022-08-05T10:25:01.979Z,2.20
2022-08-05T10:26:08.131Z,2.30
2022-08-05T10:27:18.928Z,2.50
2022-08-05T10:28:30.783Z,2.60
2022-08-05T10:30:41.063Z,2.50
2022-08-05T10:32:49.411Z,2.30
2022-08-05T10:32:52.647Z,2.20
2022-08-05T10:33:52.280Z,2.30
2022-08-05T10:35:00.826Z,2.40
2022-08-05T10:36:05.292Z,2.30
2022-08-05T10:37:08.832Z,2.50
2022-08-05T10:38:13.608Z,2.10
2022-08-05T10:39:24.161Z,2.10
2022-08-05T10:40:43.530Z,2.20
2022-08-05T10:42:08.235Z,2.20
2022-08-05T10:43:30.823Z,2.30
2022-08-05T10:44:43.582Z,2.30
2022-08-05T10:46:06.787Z,2.10
2022-08-05T10:47:26.817Z,2.30
2022-08-05T10:48:52.395Z,2.10
2022-08-05T10:50:31.961Z,2.20
2022-08-05T10:51:59.900Z,2.20
2022-08-05T10:53:04.189Z,2.30
2022-08-05T10:54:28.530Z,2.20
2022-08-05T10:56:03.528Z,2.40
2022-08-05T10:56:57.303Z,2.30
2022-08-05T10:58:08.849Z,2.20
2022-08-05T11:00:03.451Z,2.50
2022-08-05T11:00:47.435Z,2.30
2022-08-05T11:02:05.960Z,2.30
2022-08-05T11:03:25.259Z,2.20
2022-08-05T11:04:30.756Z,2.20
2022-08-05T11:05:35.160Z,2.10
2022-08-05T11:06:58.248Z,2.10
2022-08-05T11:08:27.536Z,2.20
2022-08-05T11:09:51.842Z,2.10
2022-08-05T11:11:44.720Z,2.20
2022-08-05T11:12:57.957Z,2.10
2022-08-05T11:14:02.792Z,2.20
2022-08-05T11:15:19.696Z,2.30
2022-08-05T11:16:34.013Z,2.40
2022-08-05T11:18:00.322Z,2.20
2022-08-05T11:20:16.554Z,2.20
2022-08-05T11:20:54.785Z,2.10
2022-08-05T11:22:37.277Z,2.30
2022-08-05T11:24:04.140Z,2.10
2022-08-05T11:26:05.015Z,2.10
2022-08-05T11:27:51.347Z,2.20
2022-08-05T11:28:54.632Z,2.10
2022-08-05T11:30:04.065Z,2.10
2022-08-05T11:31:07.309Z,2.10
2022-08-05T11:32:30.975Z,2.10
2022-08-05T11:33:46.471Z,2.20
2022-08-05T11:34:54.377Z,2.30
2022-08-05T11:36:07.565Z,1.90
2022-08-05T11:38:37.400Z,2.10
2022-08-05T11:38:57.712Z,2.10
2022-08-05T11:40:04.331Z,2.00
2022-08-05T11:41:57.926Z,2.00
2022-08-05T11:42:49.607Z,2.10
2022-08-05T11:44:05.474Z,2.10
2022-08-05T11:45:26.803Z,1.90
2022-08-05T11:46:58.569Z,1.80
2022-08-05T11:48:09.682Z,1.90
2022-08-05T11:49:16.959Z,1.80
2022-08-05T11:50:20.147Z,1.90
2022-08-05T11:51:44.274Z,2.00
2022-08-05T11:52:54.395Z,2.00
2022-08-05T11:54:02.139Z,1.90
2022-08-05T11:55:07.582Z,1.80
2022-08-05T11:56:11.410Z,2.00
2022-08-05T11:57:25.562Z,2.10
2022-08-05T11:58:40.061Z,2.10
2022-08-05T11:59:50.169Z,2.10
2022-08-05T12:01:02.935Z,1.90
2022-08-05T12:02:23.926Z,1.90
2022-08-05T12:03:56.352Z,2.20
2022-08-05T12:05:07.682Z,1.90
2022-08-05T12:06:26.453Z,2.20
2022-08-05T12:08:08.029Z,2.00
2022-08-05T12:08:59.807Z,2.10
2022-08-05T12:10:09.152Z,2.80
2022-08-05T12:11:40.452Z,2.30
2022-08-05T12:12:59.464Z,2.40
2022-08-05T12:14:06.117Z,2.50
2022-08-05T12:15:20.932Z,2.10
2022-08-05T12:16:45.164Z,2.70
2022-08-05T12:18:03.093Z,2.30
2022-08-05T12:19:10.211Z,2.40
2022-08-05T12:20:38.985Z,2.40
2022-08-05T12:21:45.151Z,2.30
2022-08-05T12:22:49.562Z,2.20
2022-08-05T12:24:06.994Z,2.20
2022-08-05T12:25:10.816Z,2.10
2022-08-05T12:26:17.944Z,2.30
2022-08-05T12:27:32.674Z,2.20
2022-08-05T12:28:42.732Z,2.10
2022-08-05T12:30:15.430Z,2.10
2022-08-05T12:31:33.022Z,2.10
2022-08-05T12:32:53.989Z,2.10
2022-08-05T12:34:00.980Z,2.10
2022-08-05T12:35:09.399Z,2.20
2022-08-05T12:36:13.298Z,2.20
2022-08-05T12:37:21.548Z,2.10
2022-08-05T12:38:31.568Z,2.10
2022-08-05T12:39:38.522Z,2.00
2022-08-05T12:40:43.499Z,2.20
2022-08-05T12:41:47.547Z,2.30
2022-08-05T12:42:56.155Z,2.30
2022-08-05T12:44:06.392Z,2.20
2022-08-05T12:45:49.543Z,2.30
2022-08-05T12:46:54.333Z,2.20
2022-08-05T12:48:01.544Z,2.40
2022-08-05T12:49:25.599Z,2.20
2022-08-05T12:50:30.827Z,2.30
2022-08-05T12:52:13.900Z,2.40
2022-08-05T12:53:17.321Z,2.40
2022-08-05T12:54:26.562Z,2.20
2022-08-05T12:55:35.268Z,2.20
2022-08-05T12:56:42.449Z,2.30
2022-08-05T12:58:48.312Z,2.40
2022-08-05T12:59:27.522Z,2.40
2022-08-05T13:02:00.691Z,2.40
2022-08-05T13:02:13.041Z,2.70
2022-08-05T13:03:16.437Z,2.60
2022-08-05T13:04:22.947Z,2.30
2022-08-05T13:05:37.339Z,2.20
2022-08-05T13:06:50.770Z,2.40
2022-08-05T13:08:00.229Z,2.30
2022-08-05T13:09:08.733Z,2.50
2022-08-05T13:10:19.869Z,2.60
2022-08-05T13:12:02.683Z,2.30
2022-08-05T13:12:58.184Z,2.30
2022-08-05T13:14:05.756Z,2.40
2022-08-05T13:15:16.566Z,2.40
2022-08-05T13:16:29.867Z,2.60
2022-08-05T13:17:41.826Z,2.20
2022-08-05T13:18:57.760Z,2.40
2022-08-05T13:20:02.217Z,2.50
2022-08-05T13:21:15.236Z,2.50
2022-08-05T13:22:27.960Z,2.50
2022-08-05T13:23:32.667Z,2.40
2022-08-05T13:24:57.370Z,2.60
2022-08-05T13:26:02.124Z,2.50
2022-08-05T13:27:11.146Z,2.70
2022-08-05T13:28:16.997Z,2.70
2022-08-05T13:29:37.335Z,2.30
2022-08-05T13:30:41.909Z,2.50
2022-08-05T13:32:03.781Z,2.30
2022-08-05T13:33:08.028Z,2.30
2022-08-05T13:34:24.831Z,2.40
2022-08-05T13:35:42.536Z,2.10
2022-08-05T13:36:46.697Z,2.40
2022-08-05T13:37:55.749Z,2.30
2022-08-05T13:38:59.199Z,2.30
2022-08-05T13:40:13.638Z,2.30
2022-08-05T13:41:18.303Z,2.30
2022-08-05T13:42:23.603Z,2.30
2022-08-05T13:43:45.858Z,2.20
2022-08-05T13:44:56.686Z,2.20
2022-08-05T13:46:05.255Z,2.40
2022-08-05T13:47:09.310Z,2.40
2022-08-05T13:48:58.484Z,1.90
2022-08-05T13:49:45.094Z,2.00
2022-08-05T13:50:49.646Z,2.00
2022-08-05T13:51:52.840Z,2.10
2022-08-05T13:52:57.261Z,2.00
2022-08-05T13:54:01.801Z,2.10
2022-08-05T13:55:07.634Z,1.90
2022-08-05T13:56:18.481Z,2.10
2022-08-05T13:57:23.055Z,2.40
2022-08-05T13:58:30.772Z,2.10
2022-08-05T13:59:37.645Z,1.80
2022-08-05T14:01:00.927Z,2.20
2022-08-05T14:02:07.429Z,2.10
2022-08-05T14:03:23.333Z,2.00
2022-08-05T14:04:49.672Z,2.00
2022-08-05T14:06:26.489Z,1.80
2022-08-05T14:08:00.139Z,1.80
2022-08-05T14:08:50.925Z,2.00
2022-08-05T14:09:55.943Z,1.80
2022-08-05T14:10:59.774Z,1.80
2022-08-05T14:12:17.689Z,1.80
2022-08-05T14:13:23.554Z,1.80
2022-08-05T14:14:32.304Z,2.10
2022-08-05T14:16:05.143Z,1.80
2022-08-05T14:17:02.637Z,1.60
2022-08-05T14:18:14.970Z,1.80
2022-08-05T14:19:21.131Z,1.80
2022-08-05T14:20:27.179Z,2.00
2022-08-05T14:22:08.903Z,1.90
2022-08-05T14:22:54.538Z,1.90
2022-08-05T14:23:57.611Z,2.00
2022-08-05T14:25:06.250Z,2.10
2022-08-05T14:26:38.352Z,1.90
2022-08-05T14:27:47.570Z,2.00
2022-08-05T14:28:52.243Z,1.70
2022-08-05T14:29:56.335Z,1.90
2022-08-05T14:31:01.365Z,3.50
2022-08-05T14:32:15.943Z,4.60
2022-08-05T14:33:56.469Z,11.60
2022-08-05T14:34:52.177Z,6.20
2022-08-05T14:35:55.817Z,16.80
2022-08-05T14:36:59.540Z,10.30
2022-08-05T14:38:02.709Z,11.60
2022-08-05T14:39:07.774Z,13.00
2022-08-05T14:40:16.586Z,9.50
2022-08-05T14:41:21.055Z,6.80
2022-08-05T14:42:24.994Z,4.80
2022-08-05T14:44:00.258Z,3.80
2022-08-05T14:44:52.006Z,2.60
2022-08-05T14:45:55.140Z,3.00
2022-08-05T14:46:58.529Z,2.90
2022-08-05T14:48:05.309Z,3.20
2022-08-05T14:49:13.832Z,2.00
2022-08-05T14:50:19.072Z,2.30
2022-08-05T14:51:22.551Z,2.30
2022-08-05T14:52:50.479Z,2.30
2022-08-05T14:54:26.979Z,2.00
2022-08-05T14:55:24.998Z,2.00
2022-08-05T14:56:28.262Z,2.30
2022-08-05T14:57:33.929Z,2.30
2022-08-05T14:58:55.509Z,2.20
2022-08-05T14:59:58.669Z,2.00
2022-08-05T15:01:02.093Z,1.80
2022-08-05T15:02:15.176Z,1.90
2022-08-05T15:03:22.966Z,1.90
2022-08-05T15:04:27.367Z,2.10
2022-08-05T15:06:06.825Z,2.10
2022-08-05T15:06:56.626Z,2.20
2022-08-05T15:08:10.690Z,2.30
2022-08-05T15:09:52.404Z,2.00
2022-08-05T15:10:46.205Z,2.20
2022-08-05T15:11:51.771Z,2.30
2022-08-05T15:13:01.367Z,2.00
2022-08-05T15:14:07.788Z,2.10
2022-08-05T15:15:15.332Z,1.90
2022-08-05T15:16:21.037Z,2.10
2022-08-05T15:17:46.815Z,2.10
2022-08-05T15:18:50.684Z,2.20
2022-08-05T15:19:55.986Z,2.10
2022-08-05T15:21:07.572Z,2.20
2022-08-05T15:22:11.264Z,2.10
2022-08-05T15:23:14.586Z,2.10
2022-08-05T15:24:17.660Z,2.20
2022-08-05T15:25:52.772Z,2.20
2022-08-05T15:26:47.508Z,2.00
2022-08-05T15:27:52.067Z,2.00
2022-08-05T15:28:56.798Z,2.10
2022-08-05T15:30:01.441Z,2.20
2022-08-05T15:31:05.653Z,1.90
2022-08-05T15:32:10.031Z,2.00
2022-08-05T15:33:13.436Z,2.20
2022-08-05T15:34:36.799Z,2.30
2022-08-05T15:35:45.357Z,2.10
2022-08-05T15:36:49.449Z,2.00
2022-08-05T15:38:34.455Z,2.30
2022-08-05T15:40:59.655Z,2.10
2022-08-05T15:41:03.269Z,2.20
2022-08-05T15:42:50.444Z,2.60
2022-08-05T15:43:27.667Z,2.00
2022-08-05T15:44:40.776Z,2.10
2022-08-05T15:45:45.763Z,2.10
2022-08-05T15:46:49.192Z,1.90
2022-08-05T15:47:57.598Z,2.40
2022-08-05T15:49:10.637Z,2.20
2022-08-05T15:50:16.078Z,2.30
2022-08-05T15:51:22.737Z,2.40
2022-08-05T15:52:53.543Z,2.80
2022-08-05T15:53:58.068Z,2.40
2022-08-05T15:55:06.794Z,2.50
2022-08-05T15:56:14.090Z,2.30
2022-08-05T15:57:17.712Z,2.40
2022-08-05T15:58:21.081Z,2.40
2022-08-05T15:59:26.735Z,2.40
2022-08-05T16:00:50.681Z,2.30
2022-08-05T16:01:55.793Z,2.60
2022-08-05T16:03:12.380Z,2.60
2022-08-05T16:04:18.206Z,2.60
2022-08-05T16:05:28.209Z,3.00
2022-08-05T16:06:32.012Z,2.80
2022-08-05T16:07:35.421Z,2.90
2022-08-05T16:08:41.639Z,3.20
2022-08-05T16:09:44.764Z,3.00